This is the latest recevied weather packets stored in our database for station/object K4XP. If no packets are shown the sender has not sent any weather packets the latest 10 day(s).
| Time | Temp. | Humidity | Pressure | Rain* | Wind** | Luminosity | Snow |
|---|---|---|---|---|---|---|---|
| 1788220830 | 27.78° C | 75% | 1018.7 hPa | 0 mm | - | - | - |
| 1788220514 | 27.78° C | 74% | 1018.6 hPa | 0 mm | - | - | - |
| 1788220224 | 28.33° C | 74% | 1018.7 hPa | 0 mm | - | - | - |
| 1788219929 | 28.33° C | 74% | 1018.7 hPa | 0 mm | - | - | - |
| 1788219619 | 28.33° C | 73% | 1018.7 hPa | 0 mm | - | - | - |
| 1788219323 | 28.33° C | 73% | 1018.7 hPa | 0 mm | - | - | - |
| 1788219017 | 28.33° C | 72% | 1018.7 hPa | 0 mm | - | - | - |
| 1788218430 | 28.89° C | 72% | 1018.6 hPa | 0 mm | - | - | - |
| 1788218113 | 28.89° C | 71% | 1018.7 hPa | 0 mm | - | - | - |
| 1788217817 | 28.89° C | 71% | 1018.6 hPa | 0 mm | - | - | - |
| 1788217511 | 29.44° C | 70% | 1018.7 hPa | 0 mm | - | - | - |
| 1788217214 | 29.44° C | 70% | 1018.8 hPa | 0 mm | - | - | - |
| 1788216920 | 29.44° C | 70% | 1018.7 hPa | 0 mm | - | - | - |
| 1788216624 | 29.44° C | 69% | 1018.6 hPa | 0 mm | - | - | - |
| 1788216313 | 30° C | 68% | 1018.7 hPa | 0 mm | - | - | - |
| 1788216022 | 30° C | 68% | 1018.7 hPa | 0 mm | - | - | - |
| 1788215728 | 30° C | 67% | 1018.7 hPa | 0 mm | - | - | - |
| 1788215123 | 30.56° C | 64% | 1018.6 hPa | 0 mm | - | - | - |
| 1788214534 | 31.67° C | 61% | 1018.9 hPa | 0 mm | - | - | - |
| 1788214217 | 32.22° C | 60% | 1018.9 hPa | 0 mm | - | - | - |
| 1788213922 | 32.78° C | 58% | 1019 hPa | 0 mm | - | - | - |
| 1788213612 | 32.78° C | 56% | 1019 hPa | 0 mm | - | - | - |
| 1788213317 | 33.33° C | 56% | 1019 hPa | 0 mm | - | - | - |
| 1788213027 | 33.33° C | 55% | 1019 hPa | 0 mm | - | - | - |
| 1788212711 | 33.89° C | 52% | 1019 hPa | 0 mm | - | - | - |
* Rain latest hour (hover to see other rain measurements)
** Current wind speed in m/s (hover to see current wind gust speed)